Time;durP1;ratioP1;P1;durP2;ratioP2;P2;SDS_P1;SDS_P2;PMS_P1;PMS_P2;Temp;Humidity;BMP_temperature;BMP_pressure;BME280_temperature;BME280_humidity;BME280_pressure;Samples;Min_cycle;Max_cycle;Signal;HPM_P1;HPM_P2
2023/09/26 00:02:27;;;;;;;5.00;3.30;;;;;14.40;97688.00;;;;5081401;28;20239;-64
2023/09/26 00:05:18;;;;;;;5.50;3.30;;;;;14.50;97690.00;;;;5077224;28;20692;-65
2023/09/26 00:08:08;;;;;;;5.37;3.50;;;;;14.40;97681.00;;;;5083274;28;20204;-65
2023/09/26 00:10:57;;;;;;;4.83;3.97;;;;;14.40;97672.00;;;;5075842;28;20226;-65
2023/09/26 00:13:46;;;;;;;4.47;3.23;;;;;14.20;97680.00;;;;5081479;28;20231;-64
2023/09/26 00:16:37;;;;;;;5.93;3.80;;;;;14.30;97678.00;;;;5081321;28;20249;-65
2023/09/26 00:19:27;;;;;;;3.40;3.03;;;;;14.30;97673.00;;;;5086316;28;20204;-65
2023/09/26 00:22:17;;;;;;;4.70;2.93;;;;;14.20;97681.00;;;;5082701;28;20216;-65
2023/09/26 00:25:06;;;;;;;6.73;3.50;;;;;14.00;97672.00;;;;5078075;28;20240;-64
2023/09/26 00:27:55;;;;;;;5.03;3.70;;;;;13.60;97665.00;;;;5076187;28;20195;-65
2023/09/26 00:30:44;;;;;;;6.20;3.93;;;;;13.60;97662.00;;;;5083257;28;20300;-64
2023/09/26 00:33:33;;;;;;;4.93;3.17;;;;;13.90;97662.00;;;;5084849;28;20210;-65
2023/09/26 00:36:24;;;;;;;5.37;3.17;;;;;14.00;97654.00;;;;5083276;28;20203;-64
2023/09/26 00:39:13;;;;;;;4.90;3.30;;;;;14.10;97664.00;;;;5084386;28;20208;-64
2023/09/26 00:42:02;;;;;;;3.73;3.30;;;;;14.20;97657.00;;;;5072568;28;20250;-64
2023/09/26 00:44:51;;;;;;;6.40;3.97;;;;;14.20;97661.00;;;;5071125;28;20226;-65
2023/09/26 00:47:40;;;;;;;7.00;3.50;;;;;14.20;97659.00;;;;5084571;28;20203;-64
2023/09/26 00:50:29;;;;;;;7.03;3.57;;;;;13.80;97659.00;;;;5080486;28;20203;-65
2023/09/26 00:53:21;;;;;;;4.17;3.43;;;;;14.00;97655.00;;;;5076783;28;20227;-65
2023/09/26 00:56:10;;;;;;;4.77;3.13;;;;;14.20;97657.00;;;;5070212;28;20680;-64
2023/09/26 00:59:00;;;;;;;6.70;3.30;;;;;14.00;97651.00;;;;5083902;28;20203;-64
2023/09/26 01:01:50;;;;;;;4.30;3.80;;;;;13.70;97650.00;;;;5080241;28;20403;-64
2023/09/26 01:04:40;;;;;;;6.17;4.10;;;;;13.40;97647.00;;;;5075646;28;20211;-64
2023/09/26 01:07:31;;;;;;;4.73;3.10;;;;;13.50;97644.00;;;;5079681;28;20203;-65
2023/09/26 01:10:21;;;;;;;8.17;3.77;;;;;13.50;97638.00;;;;5083094;28;20211;-64
2023/09/26 01:13:10;;;;;;;6.50;3.77;;;;;13.20;97639.00;;;;5114579;22;20245;-71
2023/09/26 01:16:02;;;;;;;3.70;3.23;;;;;13.40;97646.00;;;;5107049;28;20214;-71
2023/09/26 01:18:51;;;;;;;6.70;4.23;;;;;13.40;97633.00;;;;5109311;28;20340;-70
2023/09/26 01:21:40;;;;;;;4.67;3.43;;;;;13.70;97644.00;;;;5106691;28;20218;-70
2023/09/26 01:24:30;;;;;;;6.93;4.50;;;;;13.70;97630.00;;;;5094946;28;20230;-70
2023/09/26 01:27:20;;;;;;;5.20;4.00;;;;;13.70;97640.00;;;;5086723;28;20584;-70
2023/09/26 01:30:10;;;;;;;5.47;4.40;;;;;13.70;97647.00;;;;5088755;28;20205;-70
2023/09/26 01:32:59;;;;;;;6.70;4.90;;;;;13.90;97647.00;;;;5090844;28;20242;-70
2023/09/26 01:35:48;;;;;;;6.97;5.10;;;;;13.70;97643.00;;;;5087695;28;20195;-71
2023/09/26 01:38:37;;;;;;;4.13;3.50;;;;;13.40;97635.00;;;;5088829;28;20571;-72
2023/09/26 01:41:28;;;;;;;7.73;3.67;;;;;13.30;97630.00;;;;5090363;28;20212;-70
2023/09/26 01:44:17;;;;;;;5.33;4.03;;;;;13.50;97634.00;;;;5081745;28;20606;-70
2023/09/26 01:47:06;;;;;;;5.87;4.10;;;;;13.50;97632.00;;;;5089894;28;20203;-70
2023/09/26 01:49:55;;;;;;;5.03;3.77;;;;;13.80;97630.00;;;;5088632;28;20684;-70
2023/09/26 01:52:44;;;;;;;6.03;4.33;;;;;13.80;97641.00;;;;5090332;28;20826;-70
2023/09/26 01:55:33;;;;;;;4.40;3.83;;;;;13.90;97635.00;;;;5086828;28;20207;-70
2023/09/26 01:58:23;;;;;;;7.33;3.80;;;;;13.70;97632.00;;;;5086225;28;20214;-70
2023/09/26 02:01:13;;;;;;;10.07;4.33;;;;;13.70;97634.00;;;;5083329;28;20203;-70
2023/09/26 02:04:01;;;;;;;8.27;4.93;;;;;13.60;97640.00;;;;5088007;28;20216;-70
2023/09/26 02:06:50;;;;;;;8.17;4.03;;;;;13.50;97625.00;;;;5090067;28;20207;-70
2023/09/26 02:09:39;;;;;;;10.53;4.70;;;;;13.30;97630.00;;;;5090651;28;20208;-70
2023/09/26 02:12:29;;;;;;;8.63;4.90;;;;;13.50;97624.00;;;;5085166;28;20277;-69
2023/09/26 02:15:19;;;;;;;5.67;4.77;;;;;13.40;97635.00;;;;5084083;28;20611;-70
2023/09/26 02:18:08;;;;;;;6.77;4.70;;;;;13.50;97631.00;;;;5096027;28;20221;-70
2023/09/26 02:20:57;;;;;;;8.93;5.13;;;;;13.10;97629.00;;;;5091550;28;20207;-70
2023/09/26 02:23:46;;;;;;;8.03;4.30;;;;;12.60;97622.00;;;;5089572;28;20230;-69
2023/09/26 02:26:35;;;;;;;5.43;4.27;;;;;12.90;97626.00;;;;5088449;28;20209;-69
2023/09/26 02:29:24;;;;;;;6.80;4.77;;;;;13.00;97623.00;;;;5089402;28;20592;-69
2023/09/26 02:32:15;;;;;;;5.30;4.80;;;;;13.10;97623.00;;;;5085277;28;20780;-70
2023/09/26 02:35:05;;;;;;;6.93;4.90;;;;;12.90;97612.00;;;;5088522;28;20214;-69
2023/09/26 02:37:54;;;;;;;6.67;4.43;;;;;13.00;97615.00;;;;5089030;28;20208;-69
2023/09/26 02:40:43;;;;;;;8.67;6.30;;;;;13.00;97627.00;;;;5092839;28;20206;-71
2023/09/26 02:43:32;;;;;;;9.87;5.77;;;;;13.20;97625.00;;;;5084629;28;20227;-69
2023/09/26 02:46:21;;;;;;;7.87;5.53;;;;;13.40;97621.00;;;;5084758;28;20199;-69
2023/09/26 02:49:11;;;;;;;6.23;5.00;;;;;13.60;97626.00;;;;5082191;28;20722;-70
2023/09/26 02:52:00;;;;;;;6.87;5.23;;;;;13.50;97621.00;;;;5087305;28;20215;-70
2023/09/26 02:54:49;;;;;;;11.50;4.87;;;;;13.20;97625.00;;;;5088235;28;20203;-70
2023/09/26 02:57:38;;;;;;;8.93;4.50;;;;;12.80;97628.00;;;;5087600;28;20207;-70
2023/09/26 03:00:28;;;;;;;18.37;5.90;;;;;13.00;97634.00;;;;5084222;28;20206;-70
2023/09/26 03:03:17;;;;;;;6.80;5.07;;;;;13.30;97627.00;;;;5089906;28;20223;-69
2023/09/26 03:06:07;;;;;;;6.73;5.47;;;;;13.10;97630.00;;;;5088449;28;20203;-69
2023/09/26 03:08:56;;;;;;;4.97;4.03;;;;;12.50;97632.00;;;;5089389;28;20207;-69
2023/09/26 03:11:45;;;;;;;5.93;5.30;;;;;12.70;97619.00;;;;5088010;28;20206;-69
2023/09/26 03:14:34;;;;;;;5.43;4.93;;;;;13.10;97620.00;;;;5087876;28;20234;-69
2023/09/26 03:17:23;;;;;;;14.07;6.47;;;;;13.20;97624.00;;;;5084291;28;20203;-69
2023/09/26 03:20:15;;;;;;;6.83;5.37;;;;;13.00;97623.00;;;;5082544;28;20687;-70
2023/09/26 03:23:06;;;;;;;8.37;6.10;;;;;12.80;97619.00;;;;5088072;28;20302;-70
2023/09/26 03:25:55;;;;;;;6.57;5.60;;;;;12.50;97618.00;;;;5086327;28;20207;-69
2023/09/26 03:28:44;;;;;;;5.53;4.70;;;;;12.50;97620.00;;;;5089277;28;20210;-70
2023/09/26 03:31:34;;;;;;;7.83;5.23;;;;;12.50;97617.00;;;;5089169;28;20211;-70
2023/09/26 03:34:23;;;;;;;7.27;6.33;;;;;12.50;97615.00;;;;5082480;28;20267;-69
2023/09/26 03:37:12;;;;;;;8.73;6.47;;;;;12.50;97607.00;;;;5085446;28;20694;-69
2023/09/26 03:40:02;;;;;;;8.23;5.83;;;;;13.00;97619.00;;;;5088265;28;20872;-69
2023/09/26 03:42:51;;;;;;;8.90;6.60;;;;;13.20;97614.00;;;;5084575;28;20594;-70
2023/09/26 03:45:40;;;;;;;9.23;7.20;;;;;13.30;97620.00;;;;5086778;28;20226;-70
2023/09/26 03:48:29;;;;;;;9.57;6.53;;;;;13.10;97613.00;;;;5085147;28;20212;-71
2023/09/26 03:51:18;;;;;;;6.23;4.77;;;;;12.40;97611.00;;;;5082495;28;20671;-70
2023/09/26 03:54:07;;;;;;;10.90;6.03;;;;;12.50;97611.00;;;;5087552;28;20227;-70
2023/09/26 03:56:58;;;;;;;7.07;5.90;;;;;12.60;97611.00;;;;5085693;28;20206;-70
2023/09/26 03:59:49;;;;;;;13.67;8.53;;;;;12.40;97609.00;;;;5087344;28;20214;-71
2023/09/26 04:02:39;;;;;;;9.40;5.10;;;;;12.40;97614.00;;;;5085988;28;20195;-70
2023/09/26 04:05:28;;;;;;;10.93;7.33;;;;;12.40;97610.00;;;;5083801;28;20199;-69
2023/09/26 04:08:17;;;;;;;7.57;5.67;;;;;12.50;97610.00;;;;5079470;28;20199;-70
2023/09/26 04:11:06;;;;;;;7.97;5.57;;;;;12.20;97608.00;;;;5086698;28;20218;-71
2023/09/26 04:13:56;;;;;;;13.07;6.17;;;;;12.40;97606.00;;;;5084617;28;20230;-69
2023/09/26 04:16:45;;;;;;;7.20;5.93;;;;;12.70;97612.00;;;;5082980;28;20207;-70
2023/09/26 04:19:34;;;;;;;7.27;6.03;;;;;13.00;97614.00;;;;5092730;28;20198;-70
2023/09/26 04:22:23;;;;;;;7.77;6.83;;;;;12.60;97604.00;;;;5087829;28;20207;-70
2023/09/26 04:25:12;;;;;;;9.67;5.47;;;;;12.70;97610.00;;;;5086004;28;20199;-70
2023/09/26 04:28:02;;;;;;;11.87;6.40;;;;;12.50;97617.00;;;;5087432;28;20203;-71
2023/09/26 04:30:53;;;;;;;12.00;6.93;;;;;12.70;97614.00;;;;5087435;28;20205;-70
2023/09/26 04:33:42;;;;;;;8.87;6.40;;;;;12.80;97619.00;;;;5085484;28;20227;-70
2023/09/26 04:36:31;;;;;;;9.43;7.63;;;;;12.70;97613.00;;;;5081570;28;20198;-70
2023/09/26 04:39:20;;;;;;;11.73;7.13;;;;;12.50;97610.00;;;;5085446;28;20204;-70
2023/09/26 04:42:09;;;;;;;8.20;5.90;;;;;12.20;97616.00;;;;5093100;28;20203;-70
2023/09/26 04:44:58;;;;;;;9.13;7.23;;;;;12.50;97611.00;;;;5085191;28;20207;-70
2023/09/26 04:47:48;;;;;;;10.30;7.30;;;;;12.30;97613.00;;;;5087711;28;20199;-70
2023/09/26 04:50:38;;;;;;;8.97;6.90;;;;;12.10;97611.00;;;;5085951;28;20199;-69
2023/09/26 04:53:27;;;;;;;12.87;7.13;;;;;12.30;97614.00;;;;5087122;28;20231;-70
2023/09/26 04:56:16;;;;;;;12.47;7.50;;;;;12.90;97621.00;;;;5086848;28;20222;-70
2023/09/26 04:59:05;;;;;;;10.50;7.23;;;;;12.90;97615.00;;;;5087349;28;20207;-70
2023/09/26 05:01:54;;;;;;;11.80;8.10;;;;;12.80;97623.00;;;;5084496;28;20203;-69
2023/09/26 05:04:45;;;;;;;10.33;7.57;;;;;13.30;97626.00;;;;5089747;28;20221;-70
2023/09/26 05:07:34;;;;;;;9.57;7.87;;;;;13.50;97630.00;;;;5090151;28;20195;-70
2023/09/26 05:10:23;;;;;;;10.80;8.23;;;;;13.40;97627.00;;;;5089711;28;20199;-70
2023/09/26 05:13:12;;;;;;;10.87;7.07;;;;;13.00;97628.00;;;;5090325;28;20226;-70
2023/09/26 05:16:02;;;;;;;8.80;7.67;;;;;12.70;97622.00;;;;5091034;28;20209;-72
2023/09/26 05:18:51;;;;;;;8.97;6.43;;;;;12.50;97626.00;;;;5092542;28;20207;-71
2023/09/26 05:21:41;;;;;;;10.90;7.47;;;;;12.50;97625.00;;;;5091480;28;20195;-69
2023/09/26 05:24:30;;;;;;;9.80;6.80;;;;;12.50;97626.00;;;;5088753;28;20227;-72
2023/09/26 05:27:19;;;;;;;12.97;7.00;;;;;12.70;97627.00;;;;5089457;28;20210;-69
2023/09/26 05:30:11;;;;;;;13.37;7.53;;;;;13.00;97628.00;;;;5084936;28;20203;-70
2023/09/26 05:33:00;;;;;;;8.93;6.77;;;;;13.20;97620.00;;;;5089410;28;20254;-70
2023/09/26 05:35:49;;;;;;;10.97;8.00;;;;;13.40;97619.00;;;;5088529;28;20249;-71
2023/09/26 05:38:39;;;;;;;9.63;6.73;;;;;13.30;97620.00;;;;5092438;28;20690;-71
2023/09/26 05:41:28;;;;;;;8.67;7.77;;;;;13.50;97623.00;;;;5083404;28;20210;-70
2023/09/26 05:44:18;;;;;;;11.33;8.80;;;;;13.80;97625.00;;;;5082045;28;20223;-71
2023/09/26 05:47:07;;;;;;;8.37;7.33;;;;;13.70;97621.00;;;;5088509;28;20210;-70
2023/09/26 05:49:56;;;;;;;10.80;8.37;;;;;13.60;97622.00;;;;5089188;28;20244;-71
2023/09/26 05:52:45;;;;;;;9.10;7.27;;;;;13.40;97616.00;;;;5091204;28;20293;-70
2023/09/26 05:55:35;;;;;;;14.40;9.20;;;;;13.60;97623.00;;;;5091442;28;20226;-71
2023/09/26 05:58:24;;;;;;;12.20;6.70;;;;;13.70;97620.00;;;;5093252;28;20210;-70
2023/09/26 06:01:13;;;;;;;14.07;7.83;;;;;13.50;97618.00;;;;5083399;28;20199;-70
2023/09/26 06:04:02;;;;;;;10.47;7.60;;;;;13.60;97624.00;;;;5090712;28;20239;-71
2023/09/26 06:06:51;;;;;;;10.80;8.33;;;;;13.20;97622.00;;;;5093683;28;20891;-70
2023/09/26 06:09:40;;;;;;;12.50;7.67;;;;;13.60;97615.00;;;;5089986;28;20199;-70
2023/09/26 06:12:36;;;;;;;8.90;7.07;;;;;13.80;97618.00;;;;5088867;28;20626;-71
2023/09/26 06:15:25;;;;;;;10.23;7.57;;;;;14.10;97621.00;;;;5089060;28;20900;-70
2023/09/26 06:18:14;;;;;;;13.70;8.20;;;;;14.20;97612.00;;;;5089409;28;20668;-69
2023/09/26 06:21:05;;;;;;;11.43;8.87;;;;;14.50;97621.00;;;;5090118;28;20203;-70
2023/09/26 06:23:54;;;;;;;11.37;8.50;;;;;14.50;97623.00;;;;5091219;28;20233;-70
2023/09/26 06:26:43;;;;;;;9.40;7.80;;;;;14.40;97620.00;;;;5090413;28;20206;-69
2023/09/26 06:29:33;;;;;;;9.87;7.57;;;;;14.70;97621.00;;;;5093775;28;20206;-72
2023/09/26 06:32:23;;;;;;;9.17;7.47;;;;;14.50;97620.00;;;;5088880;28;20203;-71
2023/09/26 06:35:12;;;;;;;12.13;7.43;;;;;14.60;97622.00;;;;5084701;28;20758;-69
2023/09/26 06:38:01;;;;;;;12.63;7.87;;;;;14.70;97620.00;;;;5087093;28;20253;-70
2023/09/26 06:40:56;;;;;;;9.47;7.67;;;;;14.70;97626.00;;;;5093582;28;20790;-71
2023/09/26 06:43:45;;;;;;;9.07;7.13;;;;;14.70;97629.00;;;;5088052;28;20219;-72
2023/09/26 06:46:36;;;;;;;8.90;6.47;;;;;14.70;97640.00;;;;5088801;28;20191;-70
2023/09/26 06:49:25;;;;;;;12.67;7.40;;;;;14.90;97634.00;;;;5083608;28;20199;-70
2023/09/26 06:52:14;;;;;;;9.57;7.73;;;;;15.20;97633.00;;;;5082021;28;20203;-70
2023/09/26 06:55:09;;;;;;;11.13;8.10;;;;;15.40;97631.00;;;;5088559;28;20221;-70
2023/09/26 06:57:58;;;;;;;9.37;7.37;;;;;15.50;97633.00;;;;5089030;28;20207;-70
2023/09/26 07:00:47;;;;;;;14.23;7.17;;;;;15.70;97636.00;;;;5089769;28;20578;-70
2023/09/26 07:03:38;;;;;;;13.53;8.03;;;;;16.00;97638.00;;;;5088157;28;20222;-71
2023/09/26 07:06:27;;;;;;;9.57;7.23;;;;;16.20;97636.00;;;;5084744;28;20200;-71
2023/09/26 07:09:16;;;;;;;9.30;6.37;;;;;16.50;97636.00;;;;5086549;28;20699;-71
2023/09/26 07:12:06;;;;;;;15.57;9.10;;;;;16.50;97643.00;;;;5081038;28;20203;-71
2023/09/26 07:14:56;;;;;;;8.00;7.07;;;;;16.40;97640.00;;;;5088606;28;20215;-69
2023/09/26 07:17:45;;;;;;;11.53;7.53;;;;;16.60;97654.00;;;;5088409;28;20203;-69
2023/09/26 07:20:36;;;;;;;8.43;7.50;;;;;16.80;97647.00;;;;5084681;28;20203;-69
2023/09/26 07:23:25;;;;;;;11.03;7.73;;;;;17.10;97653.00;;;;5085974;28;20717;-69
2023/09/26 07:26:17;;;;;;;14.97;7.27;;;;;17.40;97645.00;;;;5085475;28;20658;-69
2023/09/26 07:29:06;;;;;;;14.07;8.77;;;;;17.60;97651.00;;;;5086015;28;20202;-69
2023/09/26 07:31:55;;;;;;;12.10;8.63;;;;;17.60;97656.00;;;;5084680;28;20208;-70
2023/09/26 07:34:44;;;;;;;12.00;6.83;;;;;17.50;97648.00;;;;5085344;28;20755;-69
2023/09/26 07:37:34;;;;;;;9.73;7.67;;;;;17.70;97645.00;;;;5087676;28;20214;-70
2023/09/26 07:40:23;;;;;;;11.50;6.53;;;;;17.90;97648.00;;;;5087392;28;20213;-71
2023/09/26 07:43:13;;;;;;;11.63;6.77;;;;;18.10;97652.00;;;;5087208;28;20221;-70
2023/09/26 07:46:05;;;;;;;14.97;11.67;;;;;18.50;97654.00;;;;5087081;28;20200;-70
2023/09/26 07:48:54;;;;;;;11.83;8.17;;;;;18.80;97655.00;;;;5084998;28;20268;-70
2023/09/26 07:51:43;;;;;;;14.50;7.63;;;;;18.90;97652.00;;;;5083336;28;20199;-70
2023/09/26 07:54:35;;;;;;;9.90;6.33;;;;;19.10;97643.00;;;;5088136;28;20617;-70
2023/09/26 07:57:24;;;;;;;9.70;6.10;;;;;18.70;97643.00;;;;5086230;28;20195;-70
2023/09/26 08:00:14;;;;;;;12.10;6.17;;;;;19.50;97648.00;;;;5088361;27;20195;-71
2023/09/26 08:03:04;;;;;;;11.97;6.57;;;;;19.60;97645.00;;;;5088013;28;20222;-70
2023/09/26 08:06:00;;;;;;;12.27;6.33;;;;;20.00;97645.00;;;;5088888;28;20202;-70
2023/09/26 08:08:49;;;;;;;9.47;5.63;;;;;20.10;97642.00;;;;5087042;28;20222;-70
2023/09/26 08:11:41;;;;;;;6.33;5.73;;;;;20.40;97644.00;;;;5089438;28;20199;-71
2023/09/26 08:14:30;;;;;;;9.07;5.27;;;;;20.50;97641.00;;;;5087728;28;20241;-71
2023/09/26 08:17:19;;;;;;;7.60;5.87;;;;;20.50;97641.00;;;;5080739;28;20199;-69
2023/09/26 08:20:09;;;;;;;7.37;5.10;;;;;20.60;97636.00;;;;5084916;28;20582;-70
2023/09/26 08:22:58;;;;;;;7.13;5.73;;;;;20.60;97636.00;;;;5090217;28;20683;-69
2023/09/26 08:25:48;;;;;;;9.80;6.63;;;;;20.70;97629.00;;;;5082027;28;20187;-71
2023/09/26 08:28:39;;;;;;;6.47;5.27;;;;;20.80;97634.00;;;;5084012;28;20198;-72
2023/09/26 08:31:28;;;;;;;6.33;4.93;;;;;21.10;97627.00;;;;5084988;28;20207;-69
2023/09/26 08:34:17;;;;;;;6.63;4.90;;;;;21.10;97616.00;;;;5086930;28;20223;-70
2023/09/26 08:37:06;;;;;;;7.00;5.67;;;;;21.30;97630.00;;;;5084393;28;20223;-69
2023/09/26 08:39:55;;;;;;;8.77;5.73;;;;;21.30;97624.00;;;;5086007;28;20206;-71
2023/09/26 08:42:45;;;;;;;9.90;5.60;;;;;21.40;97623.00;;;;5084078;28;20223;-71
2023/09/26 08:45:36;;;;;;;6.33;5.03;;;;;21.70;97613.00;;;;5083185;28;20199;-69
2023/09/26 08:48:25;;;;;;;8.67;5.40;;;;;21.90;97623.00;;;;5085440;28;20214;-70
2023/09/26 08:51:14;;;;;;;7.43;5.10;;;;;22.00;97624.00;;;;5083720;28;20608;-69
2023/09/26 08:54:03;;;;;;;6.03;4.67;;;;;22.10;97614.00;;;;5084369;28;20227;-70
2023/09/26 08:56:52;;;;;;;5.60;5.00;;;;;22.30;97610.00;;;;5085949;28;20223;-69
2023/09/26 08:59:43;;;;;;;7.53;4.83;;;;;22.60;97610.00;;;;5088268;28;20241;-69
2023/09/26 09:02:34;;;;;;;9.70;4.83;;;;;22.90;97607.00;;;;5079171;28;20195;-69
2023/09/26 09:05:23;;;;;;;10.13;4.77;;;;;22.90;97613.00;;;;5086127;28;20203;-69
2023/09/26 09:08:19;;;;;;;7.63;4.97;;;;;23.00;97596.00;;;;5085466;28;20195;-69
2023/09/26 09:11:08;;;;;;;9.90;5.17;;;;;23.20;97595.00;;;;5084039;28;20204;-69
2023/09/26 09:13:57;;;;;;;5.73;5.00;;;;;23.40;97598.00;;;;5084654;28;20234;-69
2023/09/26 09:16:55;;;;;;;6.87;5.00;;;;;23.50;97587.00;;;;5087570;28;20609;-70
2023/09/26 09:19:50;;;;;;;5.80;4.77;;;;;23.60;97589.00;;;;5085950;28;20195;-70
2023/09/26 09:22:39;;;;;;;6.97;4.23;;;;;23.80;97586.00;;;;5084649;28;20199;-69
2023/09/26 09:25:31;;;;;;;7.20;4.00;;;;;23.90;97587.00;;;;5079380;28;20195;-67
2023/09/26 09:28:21;;;;;;;7.20;4.13;;;;;24.10;97587.00;;;;5077995;28;20200;-69
2023/09/26 09:31:13;;;;;;;7.30;4.97;;;;;24.20;97587.00;;;;5085417;28;20192;-70
2023/09/26 09:34:02;;;;;;;7.40;4.60;;;;;24.40;97576.00;;;;5086973;28;21035;-69
2023/09/26 09:36:52;;;;;;;7.03;4.50;;;;;24.50;97581.00;;;;5090192;28;20429;-69
2023/09/26 09:39:41;;;;;;;5.77;4.43;;;;;25.00;97571.00;;;;5090775;28;20235;-69
2023/09/26 09:42:30;;;;;;;9.00;4.23;;;;;25.00;97571.00;;;;5089768;28;20214;-69
2023/09/26 09:45:19;;;;;;;6.93;4.67;;;;;25.30;97567.00;;;;5084572;28;20675;-70
2023/09/26 09:48:10;;;;;;;5.17;4.50;;;;;25.50;97557.00;;;;5090926;28;20192;-69
2023/09/26 09:51:04;;;;;;;5.63;4.30;;;;;25.80;97548.00;;;;5090020;28;20344;-70
2023/09/26 09:53:56;;;;;;;7.83;4.43;;;;;26.10;97556.00;;;;5091596;28;20215;-69
2023/09/26 09:56:47;;;;;;;6.73;4.07;;;;;26.10;97546.00;;;;5087880;28;20222;-69
2023/09/26 09:59:38;;;;;;;6.93;4.57;;;;;26.20;97547.00;;;;5086350;28;20713;-70
2023/09/26 10:02:27;;;;;;;12.33;4.37;;;;;26.40;97542.00;;;;5086741;28;20203;-70
2023/09/26 10:05:16;;;;;;;6.17;4.33;;;;;26.70;97545.00;;;;5094734;28;20199;-70
2023/09/26 10:08:07;;;;;;;5.63;3.73;;;;;26.80;97553.00;;;;5089891;28;20219;-70
2023/09/26 10:10:59;;;;;;;8.47;4.73;;;;;27.10;97548.00;;;;5091027;28;20582;-70
2023/09/26 10:13:48;;;;;;;8.87;4.07;;;;;27.10;97542.00;;;;5080153;28;20228;-69
2023/09/26 10:16:38;;;;;;;5.87;3.80;;;;;27.30;97541.00;;;;5087541;28;20219;-69
2023/09/26 10:19:28;;;;;;;7.53;4.70;;;;;27.30;97545.00;;;;5080706;28;20201;-69
2023/09/26 10:22:27;;;;;;;4.63;3.40;;;;;27.90;97537.00;;;;5091672;28;20582;-69
2023/09/26 10:25:19;;;;;;;6.60;4.50;;;;;28.10;97533.00;;;;5085956;28;20224;-68
2023/09/26 10:28:10;;;;;;;9.93;4.10;;;;;27.90;97530.00;;;;5085857;28;20205;-68
2023/09/26 10:30:59;;;;;;;5.23;4.03;;;;;27.90;97536.00;;;;5087492;28;20198;-69
2023/09/26 10:33:54;;;;;;;10.17;3.80;;;;;28.60;97533.00;;;;5084626;28;20249;-69
2023/09/26 10:36:44;;;;;;;4.37;3.30;;;;;27.40;97525.00;;;;5089873;28;20221;-68
2023/09/26 10:39:37;;;;;;;5.83;3.83;;;;;28.50;97525.00;;;;5089040;28;20213;-69
2023/09/26 10:42:26;;;;;;;8.97;4.20;;;;;29.30;97521.00;;;;5089657;28;20246;-69
2023/09/26 10:45:19;;;;;;;6.17;4.37;;;;;29.60;97523.00;;;;5088797;28;20712;-69
2023/09/26 10:48:09;;;;;;;5.60;3.93;;;;;29.80;97511.00;;;;5088682;28;20205;-69
2023/09/26 10:51:04;;;;;;;8.03;4.03;;;;;30.10;97516.00;;;;5093442;28;20212;-70
2023/09/26 10:53:53;;;;;;;5.43;3.50;;;;;30.40;97520.00;;;;5088736;28;20237;-69
2023/09/26 10:56:47;;;;;;;6.10;3.67;;;;;30.30;97504.00;;;;5087568;28;20229;-70
2023/09/26 10:59:36;;;;;;;7.77;3.80;;;;;30.20;97519.00;;;;5088161;28;20206;-69
2023/09/26 11:02:27;;;;;;;6.63;3.88;;;;;30.50;97513.00;;;;5083854;28;20556;-69
2023/09/26 11:05:17;;;;;;;5.53;3.60;;;;;31.00;97505.00;;;;5078636;28;20211;-69
2023/09/26 11:08:06;;;;;;;4.70;4.20;;;;;30.70;97505.00;;;;5083343;28;21830;-69
2023/09/26 11:10:59;;;;;;;4.32;3.58;;;;;31.20;97500.00;;;;5086763;28;20206;-69
2023/09/26 11:13:48;;;;;;;5.97;4.68;;;;;31.60;97500.00;;;;5090939;28;20235;-69
2023/09/26 11:16:37;;;;;;;10.57;3.97;;;;;31.80;97501.00;;;;5087108;28;20201;-69
2023/09/26 11:19:29;;;;;;;4.78;3.65;;;;;31.90;97499.00;;;;5083212;28;20205;-69
2023/09/26 11:22:18;;;;;;;6.70;3.50;;;;;32.10;97500.00;;;;5086243;28;20569;-69
2023/09/26 11:25:08;;;;;;;5.05;4.05;;;;;32.50;97499.00;;;;5083664;28;20199;-70
2023/09/26 11:27:57;;;;;;;6.80;4.38;;;;;32.80;97497.00;;;;5083205;28;20207;-69
2023/09/26 11:30:46;;;;;;;5.80;4.68;;;;;33.10;97484.00;;;;5088263;28;20194;-69
2023/09/26 11:33:37;;;;;;;4.82;3.97;;;;;33.30;97480.00;;;;5088142;28;20232;-69
2023/09/26 11:36:27;;;;;;;6.03;3.53;;;;;33.90;97475.00;;;;5085295;28;20223;-69
2023/09/26 11:39:19;;;;;;;6.50;3.92;;;;;33.40;97480.00;;;;5081116;28;20229;-69
2023/09/26 11:42:10;;;;;;;7.70;4.78;;;;;34.20;97468.00;;;;5087879;28;20203;-69
2023/09/26 11:44:59;;;;;;;6.88;4.15;;;;;34.10;97467.00;;;;5092091;28;20214;-70
2023/09/26 11:47:50;;;;;;;4.40;3.97;;;;;33.80;97467.00;;;;5088503;28;20210;-70
2023/09/26 11:50:40;;;;;;;9.98;3.90;;;;;33.70;97471.00;;;;5087137;28;20584;-70
2023/09/26 11:53:30;;;;;;;5.68;4.80;;;;;33.70;97464.00;;;;5095676;28;20229;-70
2023/09/26 11:56:21;;;;;;;6.28;4.50;;;;;34.10;97468.00;;;;5085632;28;20203;-69
2023/09/26 11:59:10;;;;;;;4.10;3.70;;;;;34.20;97460.00;;;;5087610;28;20203;-69
2023/09/26 12:02:00;;;;;;;7.55;3.50;;;;;34.50;97444.00;;;;5086473;28;20210;-69
2023/09/26 12:04:49;;;;;;;5.10;3.95;;;;;35.20;97451.00;;;;5079688;28;20717;-67
2023/09/26 12:07:38;;;;;;;6.70;4.03;;;;;35.00;97452.00;;;;5087429;28;20199;-69
2023/09/26 12:10:29;;;;;;;5.75;5.03;;;;;34.90;97451.00;;;;5083123;28;20263;-69
2023/09/26 12:13:18;;;;;;;5.75;3.85;;;;;35.20;97449.00;;;;5087057;28;20231;-69
2023/09/26 12:16:07;;;;;;;7.43;4.10;;;;;35.70;97441.00;;;;5085654;28;20571;-70
2023/09/26 12:18:56;;;;;;;5.50;3.80;;;;;36.10;97446.00;;;;5084724;28;20044;-70
2023/09/26 12:21:45;;;;;;;9.50;4.05;;;;;36.10;97441.00;;;;5082604;28;20593;-69
2023/09/26 12:24:34;;;;;;;5.82;4.00;;;;;35.60;97443.00;;;;5085038;28;20234;-69
2023/09/26 12:27:24;;;;;;;6.03;4.05;;;;;36.20;97435.00;;;;5085833;28;20281;-69
2023/09/26 12:30:14;;;;;;;9.02;3.65;;;;;36.10;97428.00;;;;5087245;28;20198;-70
2023/09/26 12:33:03;;;;;;;7.07;3.33;;;;;36.30;97432.00;;;;5086459;28;20766;-69
2023/09/26 12:35:52;;;;;;;4.63;3.78;;;;;37.10;97434.00;;;;5092070;28;20209;-70
2023/09/26 12:38:41;;;;;;;6.15;3.63;;;;;37.70;97428.00;;;;5085171;28;20122;-70
2023/09/26 12:41:30;;;;;;;5.68;3.38;;;;;37.70;97435.00;;;;5082117;28;20168;-69
2023/09/26 12:44:20;;;;;;;4.57;3.50;;;34.30;71.90;37.20;97434.00;;;;5081384;28;20219;-69
2023/09/26 12:47:09;;;;;;;6.88;3.83;;;34.10;72.50;35.70;97428.00;;;;5083722;28;20195;-69
2023/09/26 12:49:58;;;;;;;5.93;4.03;;;34.00;71.10;36.60;97425.00;;;;5087035;28;20199;-68
2023/09/26 12:52:47;;;;;;;5.80;3.55;;;33.80;72.70;37.80;97424.00;;;;5094597;28;20616;-69
2023/09/26 12:55:36;;;;;;;7.47;3.65;;;33.90;73.50;37.90;97430.00;;;;5083440;28;20210;-69
2023/09/26 12:58:25;;;;;;;4.35;3.40;;;34.10;71.40;38.10;97428.00;;;;5080903;28;20584;-69
2023/09/26 13:01:15;;;;;;;6.15;3.45;;;34.40;71.00;38.50;97428.00;;;;5088216;28;20190;-69
2023/09/26 13:04:05;;;;;;;3.80;3.47;;;34.60;70.10;36.90;97425.00;;;;5083412;28;20227;-68
2023/09/26 13:06:53;;;;;;;5.78;3.85;;;34.40;68.10;36.70;97416.00;;;;5087930;28;20714;-69
2023/09/26 13:09:42;;;;;;;4.85;3.58;;;34.30;68.10;37.30;97423.00;;;;5083373;28;20202;-68
2023/09/26 13:12:31;;;;;;;5.10;3.30;;;;;37.80;97422.00;;;;5088856;28;20210;-68
2023/09/26 13:15:20;;;;;;;6.60;3.67;;;34.30;68.60;38.00;97418.00;;;;5085336;28;20203;-68
2023/09/26 13:18:10;;;;;;;5.53;3.63;;;34.50;69.10;38.50;97424.00;;;;5089262;28;20214;-68
2023/09/26 13:20:59;;;;;;;6.00;3.88;;;34.80;68.10;38.00;97424.00;;;;5085695;28;20207;-68
2023/09/26 13:23:48;;;;;;;6.18;3.35;;;34.90;67.00;37.70;97415.00;;;;5096292;28;20229;-68
2023/09/26 13:26:36;;;;;;;8.20;4.35;;;34.80;66.90;38.50;97414.00;;;;5085676;28;20572;-68
2023/09/26 13:29:25;;;;;;;4.22;3.53;;;35.00;67.10;37.90;97422.00;;;;5086852;28;20218;-68
2023/09/26 13:32:14;;;;;;;5.95;3.50;;;35.00;65.50;37.20;97415.00;;;;5083776;28;20199;-68
2023/09/26 13:35:05;;;;;;;6.82;3.38;;;35.00;65.30;37.60;97414.00;;;;5097618;28;20214;-68
2023/09/26 13:37:54;;;;;;;8.48;4.85;;;34.70;65.50;37.70;97415.00;;;;5093310;28;20195;-68
2023/09/26 13:40:44;;;;;;;5.63;3.47;;;34.70;65.60;38.00;97413.00;;;;5081186;28;20192;-69
2023/09/26 13:43:34;;;;;;;6.55;4.30;;;34.60;65.50;37.70;97413.00;;;;5089189;28;20222;-69
2023/09/26 13:46:23;;;;;;;7.13;3.22;;;34.80;65.80;36.10;97404.00;;;;5088507;28;20747;-68
2023/09/26 13:49:12;;;;;;;4.53;3.08;;;34.60;65.40;36.30;97404.00;;;;5080523;28;20712;-68
2023/09/26 13:52:03;;;;;;;6.47;3.72;;;34.10;65.40;36.70;97401.00;;;;5094755;28;20194;-68
2023/09/26 13:54:52;;;;;;;3.97;3.45;;;34.10;67.70;36.90;97403.00;;;;5080967;28;20204;-67
2023/09/26 13:57:41;;;;;;;6.72;4.07;;;33.80;66.90;36.90;97405.00;;;;5087499;28;20196;-68